Portada
METAR-TAF:

METAR-TAF

Aeropuertos :

Aeropuerto Internacional Atatürk

Estambul Atatürk, Turquía

latitud: 40-58N, longitud: 028-49E, altitud: 48 m

Observación

El informe se hizo hace 27 minutos, a las 04:20 UTC
Viento 1 kt con dirección variable
Temperatura 27°C
Humedad 39%
Presión 1011 hPa
Visibilidad 10 km o más
sin nubes por debajo de 1500 m y sin presencia de cumulonimbus.

METAR: LTBA 300420Z VRB01KT CAVOK 27/12 Q1011 NOSIG RMK RWY23 VRB02KT

Hora: 07:47 (04:47 UTC)

Pronóstico

El informe se hizo hace 6 horas y 7 minutos, a las 22:40 UTC
Pronóstico válido del 30 a las 00 UTC al 31 a las 06 UTC
Viento 2 kt con dirección variable
Visibilidad 10 km o más
sin nubes por debajo de 1500 m y sin presencia de cumulonimbus.

TAF: LTBA 292240Z 3000/3106 VRB02KT CAVOK

Observaciones y pronósticos meteorológicos de más de 4000 aeropuertos (mensajes METAR y TAF).

Los puntos amarillos y rojos representan las estaciones disponibles.

Ponga el ratón en el punto deseado para ver el nombre de la estación.

Haga clic para ver las observaciones y los pronósticos meteorológicos.

Para cambiar el mapa : haga clic en los botones verdes con una cruz de color negro para hacer un zoom, en el botón verde con un guión para alejar o en las flechas verdes para mapas adyacentes.


METAR-TAF: